sensor_id;sensor_type;location;lat;lon;timestamp;P1;durP1;ratioP1;P2;durP2;ratioP2
55210;SDS011;41082;52.822;6.666;2023-06-10T00:00:39;4.63;;;3.05;;
55210;SDS011;41082;52.822;6.666;2023-06-10T00:03:06;5.03;;;2.90;;
55210;SDS011;41082;52.822;6.666;2023-06-10T00:05:32;9.10;;;3.42;;
55210;SDS011;41082;52.822;6.666;2023-06-10T00:08:00;7.82;;;3.35;;
55210;SDS011;41082;52.822;6.666;2023-06-10T00:10:31;5.93;;;2.67;;
55210;SDS011;41082;52.822;6.666;2023-06-10T00:12:58;8.18;;;3.03;;
55210;SDS011;41082;52.822;6.666;2023-06-10T00:15:24;5.55;;;2.80;;
55210;SDS011;41082;52.822;6.666;2023-06-10T00:17:50;6.72;;;3.15;;
55210;SDS011;41082;52.822;6.666;2023-06-10T00:20:17;6.07;;;2.92;;
55210;SDS011;41082;52.822;6.666;2023-06-10T00:22:43;7.57;;;3.05;;
55210;SDS011;41082;52.822;6.666;2023-06-10T00:25:10;4.97;;;3.47;;
55210;SDS011;41082;52.822;6.666;2023-06-10T00:27:36;6.07;;;3.33;;
55210;SDS011;41082;52.822;6.666;2023-06-10T00:30:02;6.22;;;3.58;;
55210;SDS011;41082;52.822;6.666;2023-06-10T00:32:31;6.55;;;3.30;;
55210;SDS011;41082;52.822;6.666;2023-06-10T00:34:57;4.55;;;3.03;;
55210;SDS011;41082;52.822;6.666;2023-06-10T00:37:23;10.15;;;3.47;;
55210;SDS011;41082;52.822;6.666;2023-06-10T00:39:48;5.85;;;3.38;;
55210;SDS011;41082;52.822;6.666;2023-06-10T00:42:14;10.68;;;3.70;;
55210;SDS011;41082;52.822;6.666;2023-06-10T00:44:40;5.25;;;3.50;;
55210;SDS011;41082;52.822;6.666;2023-06-10T00:47:06;6.28;;;3.42;;
55210;SDS011;41082;52.822;6.666;2023-06-10T00:49:32;5.40;;;3.88;;
55210;SDS011;41082;52.822;6.666;2023-06-10T00:51:58;7.63;;;4.18;;
55210;SDS011;41082;52.822;6.666;2023-06-10T00:54:24;8.35;;;4.15;;
55210;SDS011;41082;52.822;6.666;2023-06-10T00:56:51;6.20;;;3.25;;
55210;SDS011;41082;52.822;6.666;2023-06-10T00:59:18;11.70;;;4.43;;
55210;SDS011;41082;52.822;6.666;2023-06-10T01:01:43;6.53;;;3.78;;
55210;SDS011;41082;52.822;6.666;2023-06-10T01:04:12;7.78;;;4.20;;
55210;SDS011;41082;52.822;6.666;2023-06-10T01:12:02;6.03;;;3.53;;
55210;SDS011;41082;52.822;6.666;2023-06-10T01:14:43;7.32;;;4.50;;
55210;SDS011;41082;52.822;6.666;2023-06-10T01:17:11;6.88;;;4.38;;
55210;SDS011;41082;52.822;6.666;2023-06-10T01:19:37;6.38;;;4.10;;
55210;SDS011;41082;52.822;6.666;2023-06-10T01:22:03;10.38;;;3.95;;
55210;SDS011;41082;52.822;6.666;2023-06-10T01:24:29;14.60;;;4.22;;
55210;SDS011;41082;52.822;6.666;2023-06-10T01:27:00;6.80;;;3.88;;
55210;SDS011;41082;52.822;6.666;2023-06-10T01:29:33;7.45;;;3.78;;
55210;SDS011;41082;52.822;6.666;2023-06-10T01:32:12;8.55;;;3.85;;
55210;SDS011;41082;52.822;6.666;2023-06-10T01:34:43;6.78;;;3.67;;
55210;SDS011;41082;52.822;6.666;2023-06-10T01:37:10;7.82;;;3.90;;
55210;SDS011;41082;52.822;6.666;2023-06-10T01:39:38;11.10;;;4.05;;
55210;SDS011;41082;52.822;6.666;2023-06-10T01:42:04;7.22;;;3.72;;
55210;SDS011;41082;52.822;6.666;2023-06-10T01:44:31;8.13;;;4.28;;
55210;SDS011;41082;52.822;6.666;2023-06-10T01:46:57;8.13;;;4.68;;
55210;SDS011;41082;52.822;6.666;2023-06-10T01:49:22;7.28;;;4.45;;
55210;SDS011;41082;52.822;6.666;2023-06-10T01:51:49;5.85;;;4.00;;
55210;SDS011;41082;52.822;6.666;2023-06-10T01:54:15;7.00;;;3.72;;
55210;SDS011;41082;52.822;6.666;2023-06-10T01:56:40;8.75;;;4.40;;
55210;SDS011;41082;52.822;6.666;2023-06-10T01:59:06;6.80;;;3.97;;
55210;SDS011;41082;52.822;6.666;2023-06-10T02:01:32;11.70;;;4.40;;
55210;SDS011;41082;52.822;6.666;2023-06-10T02:03:58;7.88;;;4.53;;
55210;SDS011;41082;52.822;6.666;2023-06-10T02:06:23;8.63;;;5.10;;
55210;SDS011;41082;52.822;6.666;2023-06-10T02:08:49;6.15;;;4.00;;
55210;SDS011;41082;52.822;6.666;2023-06-10T02:11:15;6.70;;;4.60;;
55210;SDS011;41082;52.822;6.666;2023-06-10T02:13:40;7.32;;;4.38;;
55210;SDS011;41082;52.822;6.666;2023-06-10T02:16:06;7.63;;;4.38;;
55210;SDS011;41082;52.822;6.666;2023-06-10T02:18:32;8.95;;;4.65;;
55210;SDS011;41082;52.822;6.666;2023-06-10T02:20:58;8.60;;;4.65;;
55210;SDS011;41082;52.822;6.666;2023-06-10T02:23:24;9.23;;;4.40;;
55210;SDS011;41082;52.822;6.666;2023-06-10T02:25:49;8.02;;;4.15;;
55210;SDS011;41082;52.822;6.666;2023-06-10T02:28:15;6.45;;;4.53;;
55210;SDS011;41082;52.822;6.666;2023-06-10T02:30:41;10.27;;;4.28;;
55210;SDS011;41082;52.822;6.666;2023-06-10T02:33:07;8.10;;;4.32;;
55210;SDS011;41082;52.822;6.666;2023-06-10T02:35:37;7.15;;;4.47;;
55210;SDS011;41082;52.822;6.666;2023-06-10T02:38:03;9.63;;;4.22;;
55210;SDS011;41082;52.822;6.666;2023-06-10T02:40:29;6.65;;;3.78;;
55210;SDS011;41082;52.822;6.666;2023-06-10T02:42:54;9.13;;;4.05;;
55210;SDS011;41082;52.822;6.666;2023-06-10T02:45:20;8.25;;;3.85;;
55210;SDS011;41082;52.822;6.666;2023-06-10T02:47:45;6.90;;;3.83;;
55210;SDS011;41082;52.822;6.666;2023-06-10T02:50:11;8.10;;;4.25;;
55210;SDS011;41082;52.822;6.666;2023-06-10T02:52:37;8.07;;;4.07;;
55210;SDS011;41082;52.822;6.666;2023-06-10T02:55:02;10.10;;;4.22;;
55210;SDS011;41082;52.822;6.666;2023-06-10T02:57:28;6.78;;;3.53;;
55210;SDS011;41082;52.822;6.666;2023-06-10T02:59:54;10.05;;;4.05;;
55210;SDS011;41082;52.822;6.666;2023-06-10T03:02:19;6.10;;;4.00;;
55210;SDS011;41082;52.822;6.666;2023-06-10T03:04:45;9.85;;;4.75;;
55210;SDS011;41082;52.822;6.666;2023-06-10T03:07:11;8.38;;;4.22;;
55210;SDS011;41082;52.822;6.666;2023-06-10T03:09:37;9.63;;;4.35;;
55210;SDS011;41082;52.822;6.666;2023-06-10T03:12:03;7.55;;;3.85;;
55210;SDS011;41082;52.822;6.666;2023-06-10T03:14:30;11.13;;;4.22;;
55210;SDS011;41082;52.822;6.666;2023-06-10T03:16:55;8.07;;;3.75;;
55210;SDS011;41082;52.822;6.666;2023-06-10T03:19:21;8.05;;;4.05;;
55210;SDS011;41082;52.822;6.666;2023-06-10T03:21:49;9.73;;;4.05;;
55210;SDS011;41082;52.822;6.666;2023-06-10T03:24:19;5.72;;;3.67;;
55210;SDS011;41082;52.822;6.666;2023-06-10T03:26:45;6.18;;;4.18;;
55210;SDS011;41082;52.822;6.666;2023-06-10T03:29:11;12.05;;;3.45;;
55210;SDS011;41082;52.822;6.666;2023-06-10T03:31:36;9.38;;;4.47;;
55210;SDS011;41082;52.822;6.666;2023-06-10T03:34:03;6.57;;;4.03;;
55210;SDS011;41082;52.822;6.666;2023-06-10T03:36:29;10.27;;;3.75;;
55210;SDS011;41082;52.822;6.666;2023-06-10T03:38:55;8.30;;;3.95;;
55210;SDS011;41082;52.822;6.666;2023-06-10T03:41:22;7.55;;;4.30;;
55210;SDS011;41082;52.822;6.666;2023-06-10T03:43:48;8.95;;;4.25;;
55210;SDS011;41082;52.822;6.666;2023-06-10T03:46:13;7.50;;;3.50;;
55210;SDS011;41082;52.822;6.666;2023-06-10T03:48:40;13.20;;;4.82;;
55210;SDS011;41082;52.822;6.666;2023-06-10T03:51:06;9.95;;;3.97;;
55210;SDS011;41082;52.822;6.666;2023-06-10T03:53:31;5.93;;;3.45;;
55210;SDS011;41082;52.822;6.666;2023-06-10T03:55:57;7.55;;;3.33;;
55210;SDS011;41082;52.822;6.666;2023-06-10T03:58:22;6.65;;;3.70;;
55210;SDS011;41082;52.822;6.666;2023-06-10T04:00:48;8.45;;;3.90;;
55210;SDS011;41082;52.822;6.666;2023-06-10T04:03:14;5.53;;;3.45;;
55210;SDS011;41082;52.822;6.666;2023-06-10T04:05:40;9.30;;;3.45;;
55210;SDS011;41082;52.822;6.666;2023-06-10T04:08:07;5.63;;;3.60;;
55210;SDS011;41082;52.822;6.666;2023-06-10T04:10:33;5.35;;;3.40;;
55210;SDS011;41082;52.822;6.666;2023-06-10T04:12:58;8.13;;;4.15;;
55210;SDS011;41082;52.822;6.666;2023-06-10T04:15:24;7.03;;;3.50;;
55210;SDS011;41082;52.822;6.666;2023-06-10T04:17:50;6.35;;;3.20;;
55210;SDS011;41082;52.822;6.666;2023-06-10T04:20:16;7.97;;;3.67;;
55210;SDS011;41082;52.822;6.666;2023-06-10T04:22:43;8.48;;;3.97;;
55210;SDS011;41082;52.822;6.666;2023-06-10T04:25:09;5.72;;;3.28;;
55210;SDS011;41082;52.822;6.666;2023-06-10T04:27:35;9.68;;;3.97;;
55210;SDS011;41082;52.822;6.666;2023-06-10T04:30:01;6.65;;;3.70;;
55210;SDS011;41082;52.822;6.666;2023-06-10T04:32:27;7.93;;;3.92;;
55210;SDS011;41082;52.822;6.666;2023-06-10T04:34:53;9.23;;;3.78;;
55210;SDS011;41082;52.822;6.666;2023-06-10T04:37:19;7.97;;;3.40;;
55210;SDS011;41082;52.822;6.666;2023-06-10T04:39:45;6.80;;;3.85;;
55210;SDS011;41082;52.822;6.666;2023-06-10T04:42:10;7.20;;;3.25;;
55210;SDS011;41082;52.822;6.666;2023-06-10T04:44:36;8.23;;;4.00;;
55210;SDS011;41082;52.822;6.666;2023-06-10T04:47:02;7.38;;;3.75;;
55210;SDS011;41082;52.822;6.666;2023-06-10T04:49:27;8.48;;;3.80;;
55210;SDS011;41082;52.822;6.666;2023-06-10T04:51:54;10.35;;;4.32;;
55210;SDS011;41082;52.822;6.666;2023-06-10T04:54:20;7.53;;;3.15;;
55210;SDS011;41082;52.822;6.666;2023-06-10T04:56:45;7.43;;;3.60;;
55210;SDS011;41082;52.822;6.666;2023-06-10T04:59:11;6.78;;;3.50;;
55210;SDS011;41082;52.822;6.666;2023-06-10T05:01:37;7.82;;;3.42;;
55210;SDS011;41082;52.822;6.666;2023-06-10T05:04:03;10.10;;;4.18;;
55210;SDS011;41082;52.822;6.666;2023-06-10T05:06:29;10.27;;;3.85;;
55210;SDS011;41082;52.822;6.666;2023-06-10T05:08:55;8.68;;;3.75;;
55210;SDS011;41082;52.822;6.666;2023-06-10T05:11:20;7.93;;;3.90;;
55210;SDS011;41082;52.822;6.666;2023-06-10T05:13:46;7.05;;;3.35;;
55210;SDS011;41082;52.822;6.666;2023-06-10T05:16:12;7.78;;;3.53;;
55210;SDS011;41082;52.822;6.666;2023-06-10T05:18:40;8.80;;;3.70;;
55210;SDS011;41082;52.822;6.666;2023-06-10T05:21:05;7.57;;;3.92;;
55210;SDS011;41082;52.822;6.666;2023-06-10T05:23:31;8.18;;;3.80;;
55210;SDS011;41082;52.822;6.666;2023-06-10T05:25:56;8.40;;;3.83;;
55210;SDS011;41082;52.822;6.666;2023-06-10T05:28:23;8.35;;;4.18;;
55210;SDS011;41082;52.822;6.666;2023-06-10T05:30:49;10.38;;;4.28;;
55210;SDS011;41082;52.822;6.666;2023-06-10T05:33:14;7.78;;;4.07;;
55210;SDS011;41082;52.822;6.666;2023-06-10T05:35:40;9.65;;;4.00;;
55210;SDS011;41082;52.822;6.666;2023-06-10T05:38:06;7.22;;;3.80;;
55210;SDS011;41082;52.822;6.666;2023-06-10T05:40:31;9.15;;;3.50;;
55210;SDS011;41082;52.822;6.666;2023-06-10T05:42:57;11.30;;;4.32;;
55210;SDS011;41082;52.822;6.666;2023-06-10T05:45:22;7.85;;;4.03;;
55210;SDS011;41082;52.822;6.666;2023-06-10T05:47:48;6.30;;;3.63;;
55210;SDS011;41082;52.822;6.666;2023-06-10T05:50:13;10.88;;;4.05;;
55210;SDS011;41082;52.822;6.666;2023-06-10T05:52:40;8.15;;;4.28;;
55210;SDS011;41082;52.822;6.666;2023-06-10T05:55:05;9.25;;;3.90;;
55210;SDS011;41082;52.822;6.666;2023-06-10T05:57:31;6.38;;;3.40;;
55210;SDS011;41082;52.822;6.666;2023-06-10T05:59:57;8.38;;;3.60;;
55210;SDS011;41082;52.822;6.666;2023-06-10T06:02:23;13.00;;;4.47;;
55210;SDS011;41082;52.822;6.666;2023-06-10T06:04:49;7.63;;;3.33;;
55210;SDS011;41082;52.822;6.666;2023-06-10T06:07:14;9.20;;;3.58;;
55210;SDS011;41082;52.822;6.666;2023-06-10T06:09:40;7.03;;;3.33;;
55210;SDS011;41082;52.822;6.666;2023-06-10T06:12:06;9.27;;;3.80;;
55210;SDS011;41082;52.822;6.666;2023-06-10T06:14:32;8.05;;;3.95;;
55210;SDS011;41082;52.822;6.666;2023-06-10T06:16:58;6.80;;;3.60;;
55210;SDS011;41082;52.822;6.666;2023-06-10T06:19:23;9.30;;;3.88;;
55210;SDS011;41082;52.822;6.666;2023-06-10T06:21:49;9.43;;;3.70;;
55210;SDS011;41082;52.822;6.666;2023-06-10T06:24:15;9.55;;;3.90;;
55210;SDS011;41082;52.822;6.666;2023-06-10T06:26:41;9.40;;;4.30;;
55210;SDS011;41082;52.822;6.666;2023-06-10T06:29:07;9.80;;;3.65;;
55210;SDS011;41082;52.822;6.666;2023-06-10T06:31:32;5.70;;;3.17;;
55210;SDS011;41082;52.822;6.666;2023-06-10T06:33:58;8.30;;;4.30;;
55210;SDS011;41082;52.822;6.666;2023-06-10T06:36:24;8.13;;;3.47;;
55210;SDS011;41082;52.822;6.666;2023-06-10T06:38:49;9.80;;;3.47;;
55210;SDS011;41082;52.822;6.666;2023-06-10T06:41:15;8.35;;;3.80;;
55210;SDS011;41082;52.822;6.666;2023-06-10T06:43:40;6.60;;;2.80;;
55210;SDS011;41082;52.822;6.666;2023-06-10T06:46:08;8.02;;;3.50;;
55210;SDS011;41082;52.822;6.666;2023-06-10T06:48:34;7.88;;;3.42;;
55210;SDS011;41082;52.822;6.666;2023-06-10T06:51:00;6.35;;;3.25;;
55210;SDS011;41082;52.822;6.666;2023-06-10T06:53:25;10.00;;;3.38;;
55210;SDS011;41082;52.822;6.666;2023-06-10T06:55:51;11.63;;;4.20;;
55210;SDS011;41082;52.822;6.666;2023-06-10T06:58:16;8.18;;;3.70;;
55210;SDS011;41082;52.822;6.666;2023-06-10T07:00:42;11.52;;;3.70;;
55210;SDS011;41082;52.822;6.666;2023-06-10T07:03:08;7.00;;;2.97;;
55210;SDS011;41082;52.822;6.666;2023-06-10T07:05:33;7.53;;;3.28;;
55210;SDS011;41082;52.822;6.666;2023-06-10T07:07:59;7.38;;;3.45;;
55210;SDS011;41082;52.822;6.666;2023-06-10T07:10:25;7.43;;;2.60;;
55210;SDS011;41082;52.822;6.666;2023-06-10T07:12:51;6.70;;;3.25;;
55210;SDS011;41082;52.822;6.666;2023-06-10T07:15:17;5.65;;;3.08;;
55210;SDS011;41082;52.822;6.666;2023-06-10T07:17:43;9.57;;;3.13;;
55210;SDS011;41082;52.822;6.666;2023-06-10T07:20:09;5.45;;;3.08;;
55210;SDS011;41082;52.822;6.666;2023-06-10T07:22:35;8.15;;;3.45;;
55210;SDS011;41082;52.822;6.666;2023-06-10T07:25:00;6.90;;;3.55;;
55210;SDS011;41082;52.822;6.666;2023-06-10T07:27:26;7.07;;;3.35;;
55210;SDS011;41082;52.822;6.666;2023-06-10T07:29:52;8.68;;;3.63;;
55210;SDS011;41082;52.822;6.666;2023-06-10T07:32:19;6.75;;;2.30;;
55210;SDS011;41082;52.822;6.666;2023-06-10T07:34:48;9.95;;;3.83;;
55210;SDS011;41082;52.822;6.666;2023-06-10T07:37:15;6.40;;;3.65;;
55210;SDS011;41082;52.822;6.666;2023-06-10T07:39:40;8.02;;;3.22;;
55210;SDS011;41082;52.822;6.666;2023-06-10T07:42:07;8.30;;;3.28;;
55210;SDS011;41082;52.822;6.666;2023-06-10T07:44:33;6.88;;;3.33;;
55210;SDS011;41082;52.822;6.666;2023-06-10T07:46:58;6.60;;;3.38;;
55210;SDS011;41082;52.822;6.666;2023-06-10T07:49:24;6.13;;;3.05;;
55210;SDS011;41082;52.822;6.666;2023-06-10T07:51:50;8.00;;;3.63;;
55210;SDS011;41082;52.822;6.666;2023-06-10T07:54:15;11.65;;;3.85;;
55210;SDS011;41082;52.822;6.666;2023-06-10T07:56:41;19.90;;;4.47;;
55210;SDS011;41082;52.822;6.666;2023-06-10T07:59:07;8.73;;;3.20;;
55210;SDS011;41082;52.822;6.666;2023-06-10T08:01:32;7.47;;;3.58;;
55210;SDS011;41082;52.822;6.666;2023-06-10T08:03:58;9.15;;;3.92;;
55210;SDS011;41082;52.822;6.666;2023-06-10T08:06:23;10.00;;;4.10;;
55210;SDS011;41082;52.822;6.666;2023-06-10T08:08:49;7.70;;;3.90;;
55210;SDS011;41082;52.822;6.666;2023-06-10T08:11:15;9.05;;;3.92;;
55210;SDS011;41082;52.822;6.666;2023-06-10T08:13:40;8.45;;;4.18;;
55210;SDS011;41082;52.822;6.666;2023-06-10T08:16:06;11.27;;;4.45;;
55210;SDS011;41082;52.822;6.666;2023-06-10T08:18:32;8.13;;;4.07;;
55210;SDS011;41082;52.822;6.666;2023-06-10T08:20:58;6.95;;;4.20;;
55210;SDS011;41082;52.822;6.666;2023-06-10T08:23:24;7.75;;;3.83;;
55210;SDS011;41082;52.822;6.666;2023-06-10T08:25:50;7.93;;;3.97;;
55210;SDS011;41082;52.822;6.666;2023-06-10T08:28:16;10.93;;;4.55;;
55210;SDS011;41082;52.822;6.666;2023-06-10T08:30:42;7.40;;;4.10;;
55210;SDS011;41082;52.822;6.666;2023-06-10T08:33:07;10.02;;;4.18;;
55210;SDS011;41082;52.822;6.666;2023-06-10T08:35:33;4.68;;;3.45;;
55210;SDS011;41082;52.822;6.666;2023-06-10T08:37:59;5.55;;;3.15;;
55210;SDS011;41082;52.822;6.666;2023-06-10T08:40:24;10.25;;;4.10;;
55210;SDS011;41082;52.822;6.666;2023-06-10T08:45:24;5.10;;;2.97;;
55210;SDS011;41082;52.822;6.666;2023-06-10T08:47:54;5.40;;;3.85;;
55210;SDS011;41082;52.822;6.666;2023-06-10T08:50:23;8.20;;;3.92;;
55210;SDS011;41082;52.822;6.666;2023-06-10T08:52:50;6.20;;;3.00;;
55210;SDS011;41082;52.822;6.666;2023-06-10T08:55:23;5.20;;;2.80;;
55210;SDS011;41082;52.822;6.666;2023-06-10T08:57:54;5.70;;;3.47;;
55210;SDS011;41082;52.822;6.666;2023-06-10T09:00:20;4.60;;;2.58;;
55210;SDS011;41082;52.822;6.666;2023-06-10T09:02:47;6.13;;;3.22;;
55210;SDS011;41082;52.822;6.666;2023-06-10T09:05:13;7.20;;;2.72;;
55210;SDS011;41082;52.822;6.666;2023-06-10T09:07:40;6.13;;;2.70;;
55210;SDS011;41082;52.822;6.666;2023-06-10T09:10:06;4.68;;;3.15;;
55210;SDS011;41082;52.822;6.666;2023-06-10T09:12:35;4.63;;;2.25;;
55210;SDS011;41082;52.822;6.666;2023-06-10T09:17:28;7.75;;;3.50;;
55210;SDS011;41082;52.822;6.666;2023-06-10T09:19:54;5.13;;;3.50;;
55210;SDS011;41082;52.822;6.666;2023-06-10T09:22:22;3.63;;;2.45;;
55210;SDS011;41082;52.822;6.666;2023-06-10T09:24:48;4.50;;;2.50;;
55210;SDS011;41082;52.822;6.666;2023-06-10T09:27:14;7.55;;;2.45;;
55210;SDS011;41082;52.822;6.666;2023-06-10T09:32:18;3.33;;;2.00;;
55210;SDS011;41082;52.822;6.666;2023-06-10T09:34:45;6.20;;;2.53;;
55210;SDS011;41082;52.822;6.666;2023-06-10T09:37:11;4.28;;;2.20;;
55210;SDS011;41082;52.822;6.666;2023-06-10T09:39:39;3.65;;;2.47;;
55210;SDS011;41082;52.822;6.666;2023-06-10T09:42:17;5.55;;;2.05;;
55210;SDS011;41082;52.822;6.666;2023-06-10T09:44:52;4.68;;;2.47;;
55210;SDS011;41082;52.822;6.666;2023-06-10T09:47:22;3.70;;;2.00;;
55210;SDS011;41082;52.822;6.666;2023-06-10T09:49:48;2.63;;;1.97;;
55210;SDS011;41082;52.822;6.666;2023-06-10T09:52:20;6.93;;;2.63;;
55210;SDS011;41082;52.822;6.666;2023-06-10T09:54:51;6.28;;;2.65;;
55210;SDS011;41082;52.822;6.666;2023-06-10T09:57:17;4.55;;;2.17;;
55210;SDS011;41082;52.822;6.666;2023-06-10T09:59:44;3.97;;;2.10;;
55210;SDS011;41082;52.822;6.666;2023-06-10T10:02:17;3.65;;;1.80;;
55210;SDS011;41082;52.822;6.666;2023-06-10T10:04:46;4.60;;;1.90;;
55210;SDS011;41082;52.822;6.666;2023-06-10T10:07:12;3.95;;;1.92;;
55210;SDS011;41082;52.822;6.666;2023-06-10T10:09:39;4.88;;;2.28;;
55210;SDS011;41082;52.822;6.666;2023-06-10T10:12:07;3.58;;;2.08;;
55210;SDS011;41082;52.822;6.666;2023-06-10T10:17:02;6.15;;;1.77;;
55210;SDS011;41082;52.822;6.666;2023-06-10T10:19:32;3.85;;;1.98;;
55210;SDS011;41082;52.822;6.666;2023-06-10T10:22:04;2.72;;;1.98;;
55210;SDS011;41082;52.822;6.666;2023-06-10T10:24:38;2.83;;;1.88;;
55210;SDS011;41082;52.822;6.666;2023-06-10T10:27:17;3.30;;;1.67;;
55210;SDS011;41082;52.822;6.666;2023-06-10T10:29:47;4.25;;;2.10;;
55210;SDS011;41082;52.822;6.666;2023-06-10T10:32:15;4.38;;;1.80;;
55210;SDS011;41082;52.822;6.666;2023-06-10T10:34:43;6.05;;;1.83;;
55210;SDS011;41082;52.822;6.666;2023-06-10T10:37:19;2.95;;;1.83;;
55210;SDS011;41082;52.822;6.666;2023-06-10T10:39:45;6.38;;;1.83;;
55210;SDS011;41082;52.822;6.666;2023-06-10T10:42:11;3.10;;;1.30;;
55210;SDS011;41082;52.822;6.666;2023-06-10T10:44:37;4.28;;;1.38;;
55210;SDS011;41082;52.822;6.666;2023-06-10T10:47:05;3.60;;;1.67;;
55210;SDS011;41082;52.822;6.666;2023-06-10T10:49:34;4.63;;;2.08;;
55210;SDS011;41082;52.822;6.666;2023-06-10T10:52:02;6.10;;;2.00;;
55210;SDS011;41082;52.822;6.666;2023-06-10T10:59:46;3.40;;;1.70;;
55210;SDS011;41082;52.822;6.666;2023-06-10T11:02:32;3.17;;;1.52;;
55210;SDS011;41082;52.822;6.666;2023-06-10T11:05:15;2.70;;;1.50;;
55210;SDS011;41082;52.822;6.666;2023-06-10T11:07:51;5.35;;;1.63;;
55210;SDS011;41082;52.822;6.666;2023-06-10T11:10:20;4.15;;;1.55;;
55210;SDS011;41082;52.822;6.666;2023-06-10T11:12:54;4.18;;;1.50;;
55210;SDS011;41082;52.822;6.666;2023-06-10T11:15:22;3.95;;;1.60;;
55210;SDS011;41082;52.822;6.666;2023-06-10T11:29:05;4.65;;;1.40;;
55210;SDS011;41082;52.822;6.666;2023-06-10T11:34:15;2.80;;;1.30;;
55210;SDS011;41082;52.822;6.666;2023-06-10T11:36:48;2.83;;;1.10;;
55210;SDS011;41082;52.822;6.666;2023-06-10T11:39:14;3.78;;;1.67;;
55210;SDS011;41082;52.822;6.666;2023-06-10T11:41:40;4.28;;;2.05;;
55210;SDS011;41082;52.822;6.666;2023-06-10T11:46:38;5.72;;;1.50;;
55210;SDS011;41082;52.822;6.666;2023-06-10T11:49:05;2.25;;;1.48;;
55210;SDS011;41082;52.822;6.666;2023-06-10T11:51:35;4.88;;;1.23;;
55210;SDS011;41082;52.822;6.666;2023-06-10T11:54:03;3.03;;;1.23;;
55210;SDS011;41082;52.822;6.666;2023-06-10T11:56:30;3.35;;;1.42;;
55210;SDS011;41082;52.822;6.666;2023-06-10T12:01:29;2.53;;;1.35;;
55210;SDS011;41082;52.822;6.666;2023-06-10T12:04:00;4.03;;;1.45;;
55210;SDS011;41082;52.822;6.666;2023-06-10T12:09:21;2.83;;;1.30;;
55210;SDS011;41082;52.822;6.666;2023-06-10T12:11:48;3.97;;;1.10;;
55210;SDS011;41082;52.822;6.666;2023-06-10T12:14:15;4.97;;;1.23;;
55210;SDS011;41082;52.822;6.666;2023-06-10T12:16:48;2.70;;;1.30;;
55210;SDS011;41082;52.822;6.666;2023-06-10T12:19:14;2.05;;;1.45;;
55210;SDS011;41082;52.822;6.666;2023-06-10T12:21:40;2.85;;;1.25;;
55210;SDS011;41082;52.822;6.666;2023-06-10T12:24:07;3.30;;;1.25;;
55210;SDS011;41082;52.822;6.666;2023-06-10T12:26:38;1.70;;;1.10;;
55210;SDS011;41082;52.822;6.666;2023-06-10T12:29:20;2.40;;;1.10;;
55210;SDS011;41082;52.822;6.666;2023-06-10T12:32:07;2.35;;;1.27;;
55210;SDS011;41082;52.822;6.666;2023-06-10T12:34:36;1.75;;;1.08;;
55210;SDS011;41082;52.822;6.666;2023-06-10T12:37:04;3.45;;;1.10;;
55210;SDS011;41082;52.822;6.666;2023-06-10T12:39:32;1.98;;;0.80;;
55210;SDS011;41082;52.822;6.666;2023-06-10T12:41:58;3.80;;;1.20;;
55210;SDS011;41082;52.822;6.666;2023-06-10T12:44:28;4.00;;;1.08;;
55210;SDS011;41082;52.822;6.666;2023-06-10T12:46:54;2.78;;;0.90;;
55210;SDS011;41082;52.822;6.666;2023-06-10T12:49:20;2.53;;;0.85;;
55210;SDS011;41082;52.822;6.666;2023-06-10T12:51:46;4.22;;;1.20;;
55210;SDS011;41082;52.822;6.666;2023-06-10T12:54:12;2.75;;;1.10;;
55210;SDS011;41082;52.822;6.666;2023-06-10T12:56:38;2.00;;;0.98;;
55210;SDS011;41082;52.822;6.666;2023-06-10T12:59:04;2.50;;;0.95;;
55210;SDS011;41082;52.822;6.666;2023-06-10T13:01:29;1.60;;;0.93;;
55210;SDS011;41082;52.822;6.666;2023-06-10T13:03:56;2.00;;;0.70;;
55210;SDS011;41082;52.822;6.666;2023-06-10T13:06:22;2.28;;;0.98;;
55210;SDS011;41082;52.822;6.666;2023-06-10T13:08:48;3.80;;;1.35;;
55210;SDS011;41082;52.822;6.666;2023-06-10T13:11:13;2.72;;;1.02;;
55210;SDS011;41082;52.822;6.666;2023-06-10T13:13:39;2.75;;;1.27;;
55210;SDS011;41082;52.822;6.666;2023-06-10T13:16:05;1.80;;;1.05;;
55210;SDS011;41082;52.822;6.666;2023-06-10T13:18:30;2.78;;;1.13;;
55210;SDS011;41082;52.822;6.666;2023-06-10T13:21:02;2.50;;;0.80;;
55210;SDS011;41082;52.822;6.666;2023-06-10T13:23:28;2.90;;;1.35;;
55210;SDS011;41082;52.822;6.666;2023-06-10T13:25:54;2.35;;;0.90;;
55210;SDS011;41082;52.822;6.666;2023-06-10T13:28:20;3.30;;;0.85;;
55210;SDS011;41082;52.822;6.666;2023-06-10T13:30:46;5.10;;;1.30;;
55210;SDS011;41082;52.822;6.666;2023-06-10T13:33:12;1.85;;;0.80;;
55210;SDS011;41082;52.822;6.666;2023-06-10T13:35:37;6.10;;;1.23;;
55210;SDS011;41082;52.822;6.666;2023-06-10T13:38:03;1.60;;;1.10;;
55210;SDS011;41082;52.822;6.666;2023-06-10T13:40:28;2.90;;;1.02;;
55210;SDS011;41082;52.822;6.666;2023-06-10T13:42:54;2.47;;;0.98;;
55210;SDS011;41082;52.822;6.666;2023-06-10T13:45:20;4.80;;;1.20;;
55210;SDS011;41082;52.822;6.666;2023-06-10T13:47:46;3.75;;;0.98;;
55210;SDS011;41082;52.822;6.666;2023-06-10T13:50:12;1.95;;;1.10;;
55210;SDS011;41082;52.822;6.666;2023-06-10T13:52:38;2.38;;;0.95;;
55210;SDS011;41082;52.822;6.666;2023-06-10T13:55:04;4.55;;;1.13;;
55210;SDS011;41082;52.822;6.666;2023-06-10T13:57:30;2.58;;;0.93;;
55210;SDS011;41082;52.822;6.666;2023-06-10T13:59:55;1.65;;;0.70;;
55210;SDS011;41082;52.822;6.666;2023-06-10T14:02:21;3.20;;;1.15;;
55210;SDS011;41082;52.822;6.666;2023-06-10T14:04:47;2.63;;;1.00;;
55210;SDS011;41082;52.822;6.666;2023-06-10T14:07:12;2.92;;;1.02;;
55210;SDS011;41082;52.822;6.666;2023-06-10T14:09:38;2.63;;;1.10;;
55210;SDS011;41082;52.822;6.666;2023-06-10T14:12:04;3.85;;;1.00;;
55210;SDS011;41082;52.822;6.666;2023-06-10T14:14:30;2.47;;;1.17;;
55210;SDS011;41082;52.822;6.666;2023-06-10T14:16:58;2.47;;;0.90;;
55210;SDS011;41082;52.822;6.666;2023-06-10T14:19:23;2.13;;;1.10;;
55210;SDS011;41082;52.822;6.666;2023-06-10T14:21:49;2.55;;;1.10;;
55210;SDS011;41082;52.822;6.666;2023-06-10T14:24:15;2.83;;;1.10;;
55210;SDS011;41082;52.822;6.666;2023-06-10T14:26:40;3.13;;;1.30;;
55210;SDS011;41082;52.822;6.666;2023-06-10T14:29:06;4.63;;;1.40;;
55210;SDS011;41082;52.822;6.666;2023-06-10T14:31:32;3.45;;;1.45;;
55210;SDS011;41082;52.822;6.666;2023-06-10T14:33:58;2.53;;;1.27;;
55210;SDS011;41082;52.822;6.666;2023-06-10T14:36:23;2.42;;;1.10;;
55210;SDS011;41082;52.822;6.666;2023-06-10T14:38:49;1.52;;;1.08;;
55210;SDS011;41082;52.822;6.666;2023-06-10T14:41:15;2.20;;;1.27;;
55210;SDS011;41082;52.822;6.666;2023-06-10T14:43:40;8.75;;;1.70;;
55210;SDS011;41082;52.822;6.666;2023-06-10T14:46:06;3.30;;;1.23;;
55210;SDS011;41082;52.822;6.666;2023-06-10T14:48:31;102.18;;;8.95;;
55210;SDS011;41082;52.822;6.666;2023-06-10T14:50:57;30.70;;;3.50;;
55210;SDS011;41082;52.822;6.666;2023-06-10T14:53:23;49.60;;;6.07;;
55210;SDS011;41082;52.822;6.666;2023-06-10T14:55:48;8.90;;;1.80;;
55210;SDS011;41082;52.822;6.666;2023-06-10T14:58:14;14.55;;;2.38;;
55210;SDS011;41082;52.822;6.666;2023-06-10T15:00:39;8.77;;;1.60;;
55210;SDS011;41082;52.822;6.666;2023-06-10T15:03:05;6.65;;;1.90;;
55210;SDS011;41082;52.822;6.666;2023-06-10T15:05:31;2.20;;;1.45;;
55210;SDS011;41082;52.822;6.666;2023-06-10T15:07:58;2.90;;;1.60;;
55210;SDS011;41082;52.822;6.666;2023-06-10T15:10:23;3.88;;;1.52;;
55210;SDS011;41082;52.822;6.666;2023-06-10T15:12:49;1.90;;;1.30;;
55210;SDS011;41082;52.822;6.666;2023-06-10T15:15:23;1.83;;;1.60;;
55210;SDS011;41082;52.822;6.666;2023-06-10T15:17:50;3.10;;;1.42;;
55210;SDS011;41082;52.822;6.666;2023-06-10T15:20:15;3.72;;;1.50;;
55210;SDS011;41082;52.822;6.666;2023-06-10T15:22:41;2.08;;;1.50;;
55210;SDS011;41082;52.822;6.666;2023-06-10T15:25:07;2.88;;;1.38;;